Time;durP1;ratioP1;P1;durP2;ratioP2;P2;SDS_P1;SDS_P2;PMS_P1;PMS_P2;Temp;Humidity;BMP_temperature;BMP_pressure;BME280_temperature;BME280_humidity;BME280_pressure;Samples;Min_cycle;Max_cycle;Signal;HPM_P1;HPM_P2
2024/02/24 00:01:26;;;;;;;8.90;4.05;;;4.70;95.20;;;;;;4981718;28;20335;-81
2024/02/24 00:03:51;;;;;;;9.40;4.13;;;4.70;95.20;;;;;;4981386;28;20140;-80
2024/02/24 00:06:17;;;;;;;9.43;3.88;;;4.70;95.20;;;;;;4977655;28;20036;-80
2024/02/24 00:08:43;;;;;;;8.77;4.22;;;4.70;95.20;;;;;;4977801;28;20456;-81
2024/02/24 00:11:08;;;;;;;7.15;3.80;;;4.70;95.30;;;;;;4983949;28;20470;-80
2024/02/24 00:13:34;;;;;;;8.20;4.00;;;4.70;95.30;;;;;;4993829;28;20043;-78
2024/02/24 00:16:03;;;;;;;8.23;3.72;;;4.70;95.30;;;;;;4971007;28;20027;-79
2024/02/24 00:18:28;;;;;;;7.50;3.97;;;4.70;95.30;;;;;;4972003;28;20026;-78
2024/02/24 00:20:54;;;;;;;10.60;4.32;;;4.70;95.30;;;;;;4966085;28;20117;-79
2024/02/24 00:23:19;;;;;;;9.35;4.68;;;4.70;95.20;;;;;;4962949;28;20031;-78
2024/02/24 00:25:45;;;;;;;9.25;4.35;;;4.80;95.20;;;;;;4976751;28;20447;-80
2024/02/24 00:28:11;;;;;;;8.18;3.88;;;4.70;95.20;;;;;;4982131;28;20027;-80
2024/02/24 00:30:36;;;;;;;8.18;3.72;;;4.80;95.20;;;;;;4964869;28;20154;-81
2024/02/24 00:33:02;;;;;;;8.52;3.70;;;4.70;95.20;;;;;;4959624;28;20045;-80
2024/02/24 00:35:28;;;;;;;10.18;3.58;;;4.70;95.20;;;;;;4954145;28;20055;-80
2024/02/24 00:37:57;;;;;;;8.90;4.50;;;4.70;95.10;;;;;;4959051;28;20107;-79
2024/02/24 00:40:23;;;;;;;8.20;3.72;;;4.70;95.10;;;;;;4963753;28;20031;-81
2024/02/24 00:42:49;;;;;;;9.57;4.28;;;4.70;95.10;;;;;;4957429;28;20053;-80
2024/02/24 00:45:15;;;;;;;9.50;4.38;;;4.70;95.20;;;;;;4961698;28;20065;-80
2024/02/24 00:47:40;;;;;;;8.27;4.07;;;4.70;95.10;;;;;;4981042;28;20464;-79
2024/02/24 00:50:06;;;;;;;10.52;4.85;;;4.70;95.10;;;;;;4977951;28;20529;-80
2024/02/24 00:52:32;;;;;;;12.50;4.63;;;4.70;95.10;;;;;;4975789;28;20045;-79
2024/02/24 00:54:59;;;;;;;10.30;4.60;;;4.70;95.20;;;;;;4977784;28;20027;-79
2024/02/24 00:57:25;;;;;;;10.00;3.97;;;4.80;95.10;;;;;;4983781;28;20465;-78
2024/02/24 00:59:51;;;;;;;10.15;4.85;;;4.80;95.10;;;;;;4978250;28;20029;-79
2024/02/24 01:02:17;;;;;;;9.38;5.30;;;4.80;95.10;;;;;;4979511;28;20034;-79
2024/02/24 01:04:43;;;;;;;10.15;5.32;;;4.80;95.10;;;;;;4969781;28;20030;-77
2024/02/24 01:07:10;;;;;;;8.48;4.50;;;4.80;95.20;;;;;;4976141;28;20038;-77
2024/02/24 01:09:37;;;;;;;8.57;4.40;;;4.80;95.20;;;;;;4978193;28;20070;-80
2024/02/24 01:12:02;;;;;;;8.13;4.65;;;4.80;95.20;;;;;;4960807;28;20525;-80
2024/02/24 01:14:28;;;;;;;9.70;4.55;;;4.90;95.20;;;;;;4958971;28;20141;-80
2024/02/24 01:16:54;;;;;;;9.30;4.53;;;4.90;95.20;;;;;;4977772;28;20834;-81
2024/02/24 01:19:20;;;;;;;10.00;5.05;;;4.80;95.10;;;;;;4980708;28;20477;-80
2024/02/24 01:21:45;;;;;;;11.52;6.00;;;4.80;95.10;;;;;;4974566;28;20053;-80
2024/02/24 01:24:13;;;;;;;10.32;6.10;;;4.80;95.10;;;;;;4980229;28;20030;-79
2024/02/24 01:26:38;;;;;;;9.00;4.65;;;4.80;95.10;;;;;;4977279;28;20345;-81
2024/02/24 01:29:04;;;;;;;7.85;5.03;;;4.80;95.20;;;;;;4979273;28;20113;-80
2024/02/24 01:31:30;;;;;;;8.95;4.97;;;4.80;95.10;;;;;;4980479;28;20118;-78
2024/02/24 01:33:56;;;;;;;9.75;4.78;;;4.80;95.10;;;;;;4988437;28;20034;-78
2024/02/24 01:36:23;;;;;;;8.40;4.90;;;4.70;95.10;;;;;;4972476;28;20485;-81
2024/02/24 01:38:48;;;;;;;10.18;5.47;;;4.70;95.20;;;;;;4978081;28;20022;-78
2024/02/24 01:41:14;;;;;;;9.68;5.35;;;4.70;95.30;;;;;;4964404;28;20110;-82
2024/02/24 01:43:40;;;;;;;8.90;5.15;;;4.70;95.40;;;;;;4958729;28;20488;-81
2024/02/24 01:46:07;;;;;;;10.90;5.20;;;4.70;95.50;;;;;;4976060;28;20468;-81
2024/02/24 01:48:33;;;;;;;9.00;5.50;;;4.80;95.50;;;;;;4977821;28;20014;-80
2024/02/24 01:50:59;;;;;;;8.20;5.32;;;4.80;95.60;;;;;;4974556;28;20464;-80
2024/02/24 01:53:25;;;;;;;8.77;5.28;;;4.80;95.60;;;;;;4960383;28;20022;-81
2024/02/24 01:55:53;;;;;;;9.23;5.25;;;4.80;95.60;;;;;;4968167;28;20504;-79
2024/02/24 01:58:20;;;;;;;8.95;5.82;;;4.80;95.60;;;;;;4977292;28;20117;-81
2024/02/24 02:00:46;;;;;;;8.77;5.22;;;4.90;95.70;;;;;;4976226;28;20037;-79
2024/02/24 02:03:12;;;;;;;8.27;4.63;;;5.00;95.70;;;;;;4980622;28;20049;-80
2024/02/24 02:05:38;;;;;;;8.93;5.63;;;5.00;95.60;;;;;;4975023;28;20414;-80
2024/02/24 02:08:04;;;;;;;8.77;5.30;;;5.10;95.70;;;;;;4958747;28;20051;-81
2024/02/24 02:10:48;;;;;;;9.75;5.60;;;5.10;95.60;;;;;;4958770;28;20130;-78
2024/02/24 02:13:15;;;;;;;8.45;6.00;;;5.20;95.50;;;;;;4960726;28;20130;-81
2024/02/24 02:15:41;;;;;;;10.55;5.72;;;5.20;95.30;;;;;;4974289;28;20030;-79
2024/02/24 02:18:07;;;;;;;9.98;5.90;;;5.20;95.20;;;;;;4979447;28;20030;-80
2024/02/24 02:20:33;;;;;;;7.97;5.53;;;5.20;95.20;;;;;;4972477;28;20038;-80
2024/02/24 02:22:59;;;;;;;9.43;5.45;;;5.20;95.20;;;;;;4957893;28;20066;-79
2024/02/24 02:25:25;;;;;;;8.45;5.13;;;5.30;95.10;;;;;;4965203;28;20081;-80
2024/02/24 02:27:50;;;;;;;8.30;5.25;;;5.30;94.90;;;;;;4976889;28;20492;-79
2024/02/24 02:30:16;;;;;;;9.70;5.43;;;5.20;94.80;;;;;;4977421;28;20066;-80
2024/02/24 02:32:42;;;;;;;8.50;4.65;;;5.20;94.70;;;;;;4977048;28;20032;-80
2024/02/24 02:35:09;;;;;;;8.10;4.68;;;5.20;94.50;;;;;;4992291;28;20494;-79
2024/02/24 02:37:35;;;;;;;7.78;4.25;;;5.10;94.50;;;;;;4978954;28;20718;-81
2024/02/24 02:40:02;;;;;;;8.90;5.35;;;5.10;94.50;;;;;;4974077;28;20048;-80
2024/02/24 02:42:27;;;;;;;8.07;4.40;;;5.10;94.50;;;;;;4976191;28;20073;-79
2024/02/24 02:44:53;;;;;;;6.95;4.43;;;5.10;94.60;;;;;;4976586;28;20039;-80
2024/02/24 02:47:18;;;;;;;9.40;4.63;;;5.10;94.60;;;;;;4980372;28;20125;-81
2024/02/24 02:49:44;;;;;;;8.55;4.88;;;5.10;94.70;;;;;;4974420;28;20381;-82
2024/02/24 02:52:10;;;;;;;6.85;4.05;;;5.10;94.70;;;;;;4974915;28;20030;-81
2024/02/24 02:54:35;;;;;;;8.35;5.00;;;5.10;94.60;;;;;;4976402;28;20030;-79
2024/02/24 02:57:01;;;;;;;9.85;5.18;;;5.00;94.60;;;;;;4971574;28;20034;-80
2024/02/24 02:59:26;;;;;;;8.20;5.03;;;5.10;94.70;;;;;;4975075;28;20026;-81
2024/02/24 03:01:52;;;;;;;8.38;4.88;;;5.10;94.80;;;;;;4973972;28;20045;-81
2024/02/24 03:04:19;;;;;;;9.10;4.75;;;5.10;94.80;;;;;;4976863;28;20489;-81
2024/02/24 03:06:44;;;;;;;7.90;5.05;;;5.10;94.70;;;;;;4971270;28;20073;-79
2024/02/24 03:09:10;;;;;;;8.30;5.13;;;5.10;94.70;;;;;;4979673;28;20054;-79
2024/02/24 03:11:36;;;;;;;7.68;5.63;;;5.10;94.60;;;;;;4976596;28;20026;-79
2024/02/24 03:14:03;;;;;;;8.60;5.13;;;5.10;94.60;;;;;;4976263;28;20436;-78
2024/02/24 03:16:28;;;;;;;8.77;5.30;;;5.10;94.50;;;;;;4974994;28;20311;-80
2024/02/24 03:18:54;;;;;;;9.32;5.28;;;5.10;94.60;;;;;;4979115;28;20053;-81
2024/02/24 03:21:27;;;;;;;9.07;4.78;;;5.10;94.70;;;;;;4980302;28;20085;-81
2024/02/24 03:23:53;;;;;;;7.82;4.45;;;5.10;94.70;;;;;;4978855;28;20062;-81
2024/02/24 03:26:19;;;;;;;8.52;4.95;;;5.10;94.60;;;;;;4969464;28;20484;-80
2024/02/24 03:28:45;;;;;;;8.77;5.25;;;5.10;94.60;;;;;;4988471;28;20114;-79
2024/02/24 03:31:10;;;;;;;8.40;4.18;;;5.20;94.70;;;;;;4974891;28;20318;-79
2024/02/24 03:33:36;;;;;;;8.55;5.13;;;5.20;94.70;;;;;;4972714;28;20027;-80
2024/02/24 03:36:02;;;;;;;6.88;4.20;;;5.20;94.70;;;;;;4977112;28;20038;-81
2024/02/24 03:38:27;;;;;;;8.60;5.28;;;5.20;94.80;;;;;;4976217;28;20475;-80
2024/02/24 03:40:53;;;;;;;8.35;4.70;;;5.20;94.80;;;;;;4975474;28;20096;-79
2024/02/24 03:43:18;;;;;;;6.75;4.18;;;5.10;94.70;;;;;;4978935;28;20141;-81
2024/02/24 03:45:44;;;;;;;8.43;4.32;;;5.20;94.80;;;;;;4964588;28;20102;-81
2024/02/24 03:48:10;;;;;;;8.38;4.40;;;5.20;94.80;;;;;;4959753;28;20101;-80
2024/02/24 03:50:36;;;;;;;8.50;4.10;;;5.20;94.70;;;;;;4953351;28;20401;-79
2024/02/24 03:53:01;;;;;;;9.35;4.25;;;5.20;94.80;;;;;;4954355;28;20473;-79
2024/02/24 03:55:27;;;;;;;9.35;4.25;;;5.20;94.80;;;;;;4967777;28;20035;-81
2024/02/24 03:57:52;;;;;;;9.82;4.93;;;5.20;94.70;;;;;;4976499;28;20373;-80
2024/02/24 04:00:18;;;;;;;8.02;4.20;;;5.20;94.70;;;;;;4976627;28;20532;-80
2024/02/24 04:02:44;;;;;;;9.07;4.10;;;5.20;94.80;;;;;;4975629;28;20026;-81
2024/02/24 04:05:10;;;;;;;7.45;4.25;;;5.30;94.70;;;;;;4970703;28;20046;-81
2024/02/24 04:07:36;;;;;;;8.57;4.43;;;5.20;94.70;;;;;;4979289;28;20049;-80
2024/02/24 04:10:01;;;;;;;7.95;4.15;;;5.30;94.70;;;;;;4971987;28;20026;-80
2024/02/24 04:12:27;;;;;;;9.43;4.20;;;5.30;94.70;;;;;;4974820;28;20361;-79
2024/02/24 04:14:53;;;;;;;8.40;4.43;;;5.20;94.70;;;;;;4977162;28;20429;-80
2024/02/24 04:17:18;;;;;;;11.00;4.50;;;5.20;94.70;;;;;;4977225;28;20081;-81
2024/02/24 04:19:44;;;;;;;7.97;4.18;;;5.20;94.60;;;;;;4978892;28;20031;-80
2024/02/24 04:22:10;;;;;;;7.68;4.35;;;5.20;94.60;;;;;;4973388;28;20069;-80
2024/02/24 04:24:35;;;;;;;10.70;4.30;;;5.20;94.60;;;;;;4980535;28;20049;-78
2024/02/24 04:27:01;;;;;;;7.13;4.38;;;5.20;94.60;;;;;;4961667;28;20038;-79
2024/02/24 04:29:26;;;;;;;10.02;4.75;;;5.20;94.60;;;;;;4962864;28;20034;-79
2024/02/24 04:31:53;;;;;;;8.88;4.72;;;5.10;94.50;;;;;;4958628;28;20493;-79
2024/02/24 04:34:18;;;;;;;7.80;4.55;;;5.10;94.60;;;;;;4954657;28;20023;-81
2024/02/24 04:36:44;;;;;;;8.93;4.30;;;5.10;94.70;;;;;;4978288;28;20373;-81
2024/02/24 04:39:10;;;;;;;9.23;4.80;;;5.10;94.70;;;;;;4978537;28;20030;-80
2024/02/24 04:41:36;;;;;;;8.30;4.97;;;5.10;94.70;;;;;;4974762;28;20180;-80
2024/02/24 04:44:02;;;;;;;10.43;5.38;;;5.20;94.70;;;;;;4976246;28;20027;-80
2024/02/24 04:46:27;;;;;;;9.43;5.40;;;5.20;94.70;;;;;;4972686;28;20042;-81
2024/02/24 04:48:54;;;;;;;10.30;4.90;;;5.20;94.70;;;;;;4979533;28;20444;-79
2024/02/24 04:51:20;;;;;;;10.90;4.93;;;5.20;94.70;;;;;;4977049;28;20030;-78
2024/02/24 04:53:48;;;;;;;8.65;4.80;;;5.20;94.70;;;;;;4979063;28;20054;-79
2024/02/24 04:56:16;;;;;;;9.25;4.78;;;5.20;94.70;;;;;;4974516;28;20035;-77
2024/02/24 04:58:41;;;;;;;10.52;5.35;;;5.20;94.70;;;;;;4979275;28;20023;-79
2024/02/24 05:01:07;;;;;;;8.25;4.72;;;5.30;94.70;;;;;;4977082;28;20470;-78
2024/02/24 05:03:32;;;;;;;9.27;5.78;;;5.30;94.60;;;;;;4979380;28;20034;-78
2024/02/24 05:05:58;;;;;;;9.20;5.18;;;5.20;94.60;;;;;;4978645;28;20026;-79
2024/02/24 05:08:24;;;;;;;9.75;5.55;;;5.30;94.60;;;;;;4981435;28;20130;-79
2024/02/24 05:10:49;;;;;;;8.93;5.13;;;5.20;94.50;;;;;;4968839;28;20035;-79
2024/02/24 05:13:15;;;;;;;10.23;5.50;;;5.20;94.50;;;;;;4964157;28;20541;-79
2024/02/24 05:15:40;;;;;;;8.73;5.40;;;5.20;94.60;;;;;;4957429;28;20118;-81
2024/02/24 05:18:06;;;;;;;10.85;5.72;;;5.30;94.60;;;;;;4958680;28;20031;-78
2024/02/24 05:20:32;;;;;;;9.65;6.03;;;5.20;94.60;;;;;;4969107;28;20042;-78
2024/02/24 05:22:57;;;;;;;11.13;5.38;;;5.30;94.60;;;;;;4979229;28;20081;-78
2024/02/24 05:25:23;;;;;;;9.98;5.40;;;5.20;94.50;;;;;;4976515;28;20047;-79
2024/02/24 05:27:48;;;;;;;9.00;5.68;;;5.20;94.50;;;;;;4962999;28;20370;-78
2024/02/24 05:30:14;;;;;;;10.07;6.20;;;5.20;94.50;;;;;;4960413;28;20034;-79
2024/02/24 05:32:40;;;;;;;12.95;6.20;;;5.20;94.50;;;;;;4979046;28;21074;-80
2024/02/24 05:35:05;;;;;;;9.95;5.88;;;5.20;94.50;;;;;;4981247;28;20357;-79
2024/02/24 05:37:32;;;;;;;10.20;6.18;;;5.10;94.50;;;;;;4981472;28;20019;-78
2024/02/24 05:39:58;;;;;;;10.93;6.47;;;5.20;94.40;;;;;;4977256;28;20042;-78
2024/02/24 05:42:25;;;;;;;10.43;6.63;;;5.30;94.50;;;;;;4979538;28;20084;-79
2024/02/24 05:44:51;;;;;;;12.63;6.63;;;5.20;94.30;;;;;;4980081;28;20042;-79
2024/02/24 05:47:17;;;;;;;11.73;6.75;;;5.20;94.30;;;;;;4980588;28;20421;-79
2024/02/24 05:49:42;;;;;;;13.27;6.93;;;5.20;94.20;;;;;;4979445;28;20465;-78
2024/02/24 05:52:08;;;;;;;10.68;6.40;;;5.20;94.20;;;;;;4980591;28;20128;-78
2024/02/24 05:54:34;;;;;;;10.00;6.88;;;5.20;94.10;;;;;;4977276;28;20014;-79
2024/02/24 05:57:04;;;;;;;10.77;6.28;;;5.20;94.00;;;;;;4977077;28;20130;-79
2024/02/24 05:59:30;;;;;;;8.25;5.75;;;5.20;94.00;;;;;;4978767;28;20049;-79
2024/02/24 06:01:55;;;;;;;9.30;6.22;;;5.20;94.00;;;;;;4976066;28;20524;-78
2024/02/24 06:04:21;;;;;;;10.30;5.93;;;5.20;93.90;;;;;;4978887;28;20037;-79
2024/02/24 06:06:48;;;;;;;9.77;6.10;;;5.10;93.80;;;;;;4981562;28;20031;-80
2024/02/24 06:09:14;;;;;;;12.23;6.38;;;5.20;93.80;;;;;;4982409;28;20022;-78
2024/02/24 06:11:41;;;;;;;9.98;6.07;;;5.20;93.70;;;;;;4980951;28;20046;-78
2024/02/24 06:14:06;;;;;;;10.80;6.40;;;5.20;93.70;;;;;;4978258;28;20519;-79
2024/02/24 06:16:32;;;;;;;10.32;6.43;;;5.20;93.60;;;;;;4979382;28;20034;-79
2024/02/24 06:18:58;;;;;;;10.07;6.03;;;5.10;93.60;;;;;;4979168;28;20583;-77
2024/02/24 06:21:24;;;;;;;11.75;5.78;;;5.10;93.50;;;;;;4975367;28;20058;-79
2024/02/24 06:23:49;;;;;;;9.75;6.18;;;5.20;93.40;;;;;;4979031;28;20125;-79
2024/02/24 06:26:15;;;;;;;10.55;6.20;;;5.10;93.50;;;;;;4959557;28;20023;-78
2024/02/24 06:28:42;;;;;;;11.15;6.50;;;5.10;93.50;;;;;;4957333;28;20029;-78
2024/02/24 06:31:08;;;;;;;10.93;6.50;;;5.10;93.40;;;;;;4969432;28;20054;-78
2024/02/24 06:33:34;;;;;;;9.18;6.03;;;5.20;93.40;;;;;;4976643;28;20073;-78
2024/02/24 06:36:00;;;;;;;10.00;5.88;;;5.20;93.30;;;;;;4974934;28;20050;-77
2024/02/24 06:38:26;;;;;;;10.35;6.35;;;5.10;93.20;;;;;;4977053;28;20014;-79
2024/02/24 06:40:51;;;;;;;8.43;5.78;;;5.10;93.20;;;;;;4976096;28;20166;-79
2024/02/24 06:43:17;;;;;;;11.80;6.03;;;5.20;93.10;;;;;;4978163;28;20077;-78
2024/02/24 06:45:42;;;;;;;12.30;5.95;;;5.20;93.00;;;;;;4975399;28;20034;-80
2024/02/24 06:48:08;;;;;;;8.70;5.50;;;5.20;92.90;;;;;;4977644;28;20031;-78
2024/02/24 06:50:34;;;;;;;9.32;5.43;;;5.20;92.50;;;;;;4976350;28;20085;-79
2024/02/24 06:53:00;;;;;;;8.85;5.32;;;5.20;92.50;;;;;;4976039;28;20042;-78
2024/02/24 06:55:25;;;;;;;10.35;5.25;;;5.20;92.40;;;;;;4975064;28;20046;-78
2024/02/24 06:57:51;;;;;;;10.13;5.32;;;5.20;92.30;;;;;;4977166;28;20039;-79
2024/02/24 07:00:17;;;;;;;10.60;5.78;;;5.20;92.10;;;;;;4972753;28;20057;-78
2024/02/24 07:02:42;;;;;;;11.18;4.95;;;5.30;91.80;;;;;;4979329;28;20030;-78
2024/02/24 07:05:08;;;;;;;8.63;4.68;;;5.20;91.40;;;;;;4970179;28;20133;-79
2024/02/24 07:07:37;;;;;;;9.85;4.72;;;5.20;91.20;;;;;;4975589;28;20475;-78
2024/02/24 07:10:06;;;;;;;9.45;4.63;;;5.20;91.10;;;;;;4978485;28;20064;-78
2024/02/24 07:12:32;;;;;;;9.57;5.05;;;5.20;90.90;;;;;;4976309;28;20524;-78
2024/02/24 07:14:58;;;;;;;10.18;5.00;;;5.20;90.70;;;;;;4975662;28;20041;-79
2024/02/24 07:17:24;;;;;;;8.02;5.10;;;5.20;90.50;;;;;;4976828;28;20034;-76
2024/02/24 07:19:49;;;;;;;9.25;5.13;;;5.30;90.40;;;;;;4977437;28;20090;-76
2024/02/24 07:22:15;;;;;;;9.57;4.68;;;5.30;90.20;;;;;;4973757;28;20053;-76
2024/02/24 07:24:42;;;;;;;10.45;4.95;;;5.30;90.10;;;;;;4979203;28;20050;-76
2024/02/24 07:27:09;;;;;;;10.27;4.30;;;5.40;90.00;;;;;;4974426;28;20027;-76
2024/02/24 07:29:34;;;;;;;8.57;4.45;;;5.40;89.90;;;;;;4971927;28;20022;-76
2024/02/24 07:32:00;;;;;;;7.93;3.75;;;5.40;89.80;;;;;;4986504;28;20065;-75
2024/02/24 07:34:26;;;;;;;8.55;4.05;;;5.40;89.60;;;;;;4974622;28;20491;-75
2024/02/24 07:36:52;;;;;;;10.65;4.63;;;5.50;89.80;;;;;;4977793;28;20413;-75
2024/02/24 07:39:18;;;;;;;10.13;5.00;;;5.40;89.50;;;;;;4974854;28;20053;-75
2024/02/24 07:41:45;;;;;;;9.57;4.13;;;5.40;89.60;;;;;;4976459;28;20030;-75
2024/02/24 07:44:11;;;;;;;9.10;4.70;;;5.40;89.50;;;;;;4976765;28;20684;-75
2024/02/24 07:46:36;;;;;;;7.22;3.95;;;5.50;89.80;;;;;;4973885;28;20034;-76
2024/02/24 07:49:02;;;;;;;7.80;4.40;;;5.50;89.60;;;;;;4979139;28;20022;-75
2024/02/24 07:51:29;;;;;;;9.30;5.10;;;5.50;89.50;;;;;;4971525;28;20088;-75
2024/02/24 07:53:56;;;;;;;9.88;4.93;;;5.50;89.60;;;;;;4973843;28;20042;-75
2024/02/24 07:56:23;;;;;;;11.50;5.75;;;5.50;89.60;;;;;;4973780;28;20026;-75
2024/02/24 07:58:49;;;;;;;19.08;5.78;;;5.50;89.50;;;;;;4973695;28;20054;-75
2024/02/24 08:01:14;;;;;;;9.02;5.22;;;5.50;89.40;;;;;;4973266;28;20054;-75
2024/02/24 08:03:40;;;;;;;7.85;5.07;;;5.50;89.40;;;;;;4976764;28;20077;-75
2024/02/24 08:06:06;;;;;;;9.23;4.78;;;5.50;89.40;;;;;;4969646;28;20481;-76
2024/02/24 08:08:36;;;;;;;8.90;5.28;;;5.50;89.50;;;;;;4957713;28;20086;-76
2024/02/24 08:11:03;;;;;;;10.85;5.20;;;5.50;89.40;;;;;;4969786;28;20037;-76
2024/02/24 08:13:28;;;;;;;11.48;6.90;;;5.50;89.20;;;;;;4974816;28;20045;-76
2024/02/24 08:15:54;;;;;;;8.13;4.45;;;5.50;89.30;;;;;;4972661;28;20034;-76
2024/02/24 08:18:20;;;;;;;8.73;5.43;;;5.60;89.00;;;;;;4978620;28;20030;-76
2024/02/24 08:20:46;;;;;;;10.32;5.82;;;5.60;89.00;;;;;;4962882;28;20035;-75
2024/02/24 08:23:12;;;;;;;8.68;5.38;;;5.70;89.10;;;;;;4973471;28;20453;-75
2024/02/24 08:25:37;;;;;;;7.88;5.03;;;5.60;89.30;;;;;;4976120;28;20038;-76
2024/02/24 08:28:03;;;;;;;10.25;6.53;;;5.70;89.40;;;;;;4978359;28;20031;-76
2024/02/24 08:30:29;;;;;;;7.65;5.32;;;5.70;89.50;;;;;;4973938;28;20042;-76
2024/02/24 08:32:54;;;;;;;9.80;5.45;;;5.70;89.70;;;;;;4976389;28;20089;-75
2024/02/24 08:35:20;;;;;;;11.27;5.40;;;5.60;89.90;;;;;;4973442;28;20407;-74
2024/02/24 08:37:46;;;;;;;8.07;5.18;;;5.60;89.90;;;;;;4956665;28;20231;-75
2024/02/24 08:40:12;;;;;;;10.80;5.10;;;5.60;90.30;;;;;;4962280;28;20047;-75
2024/02/24 08:42:38;;;;;;;12.00;7.82;;;5.50;90.40;;;;;;4980382;28;20026;-76
2024/02/24 08:45:04;;;;;;;9.65;5.95;;;5.40;90.50;;;;;;4976084;28;20049;-75
2024/02/24 08:47:29;;;;;;;15.95;11.27;;;5.40;90.70;;;;;;4977821;28;20026;-75
2024/02/24 08:49:55;;;;;;;15.02;11.82;;;5.40;90.90;;;;;;4978898;28;20443;-74
2024/02/24 08:52:21;;;;;;;30.33;22.08;;;5.40;91.10;;;;;;4980626;28;20117;-76
2024/02/24 08:54:46;;;;;;;14.65;8.88;;;5.40;91.30;;;;;;4978351;28;20030;-74
2024/02/24 08:57:12;;;;;;;13.88;8.40;;;5.50;91.40;;;;;;4974953;28;20058;-75
2024/02/24 08:59:37;;;;;;;10.45;7.00;;;5.50;91.40;;;;;;4979028;28;21052;-76
2024/02/24 09:02:03;;;;;;;12.25;7.32;;;5.50;91.40;;;;;;4976978;28;20141;-75
2024/02/24 09:04:29;;;;;;;10.88;6.00;;;5.60;91.50;;;;;;4978760;28;20033;-76
2024/02/24 09:06:55;;;;;;;11.85;7.05;;;5.70;91.60;;;;;;4981596;28;20027;-75
2024/02/24 09:09:20;;;;;;;9.02;5.93;;;5.70;91.40;;;;;;4980637;28;20031;-75
2024/02/24 09:11:46;;;;;;;8.32;4.50;;;5.70;91.10;;;;;;4960880;28;20090;-75
2024/02/24 09:14:13;;;;;;;7.40;4.47;;;5.80;90.80;;;;;;4956807;28;20469;-73
2024/02/24 09:16:38;;;;;;;9.13;4.60;;;5.80;90.30;;;;;;4966038;28;20081;-79
2024/02/24 09:19:04;;;;;;;9.63;4.82;;;5.90;90.40;;;;;;4956089;28;20503;-74
2024/02/24 09:21:30;;;;;;;9.98;4.90;;;6.00;90.50;;;;;;4975460;28;20137;-74
2024/02/24 09:23:56;;;;;;;12.07;6.70;;;6.00;90.00;;;;;;4979663;28;20038;-75
2024/02/24 09:26:22;;;;;;;9.65;4.50;;;6.00;90.10;;;;;;4966818;28;20035;-75
2024/02/24 09:28:47;;;;;;;9.45;3.72;;;6.00;89.70;;;;;;4955654;28;20015;-75
2024/02/24 09:31:13;;;;;;;10.60;5.15;;;6.00;89.60;;;;;;4972799;28;20037;-74
2024/02/24 09:33:39;;;;;;;9.60;4.28;;;5.90;89.70;;;;;;4980810;28;20520;-75
2024/02/24 09:36:05;;;;;;;8.02;4.15;;;5.90;89.50;;;;;;4977839;28;20473;-75
2024/02/24 09:38:30;;;;;;;8.18;4.13;;;5.80;89.60;;;;;;4980233;28;20057;-73
2024/02/24 09:40:56;;;;;;;9.07;4.57;;;5.90;89.40;;;;;;4977166;28;20042;-74
2024/02/24 09:43:22;;;;;;;8.13;4.35;;;5.90;89.60;;;;;;4977559;28;20022;-73
2024/02/24 09:45:48;;;;;;;8.63;4.90;;;6.00;89.70;;;;;;4974628;28;20410;-74
2024/02/24 09:48:15;;;;;;;7.07;4.00;;;6.10;89.10;;;;;;4978277;28;20097;-75
2024/02/24 09:50:40;;;;;;;8.30;3.97;;;6.00;89.20;;;;;;4974793;28;20062;-76
2024/02/24 09:53:07;;;;;;;8.63;4.50;;;6.10;89.40;;;;;;4969717;28;20054;-74
2024/02/24 09:55:33;;;;;;;7.72;4.30;;;6.00;89.20;;;;;;4973790;28;20988;-74
2024/02/24 09:58:00;;;;;;;10.38;5.15;;;6.00;89.30;;;;;;4977775;28;20030;-75
2024/02/24 10:00:27;;;;;;;9.35;4.45;;;6.20;89.50;;;;;;4976542;28;20114;-75
2024/02/24 10:02:52;;;;;;;9.90;4.57;;;6.30;89.10;;;;;;4977693;28;20462;-75
2024/02/24 10:05:18;;;;;;;7.50;4.22;;;6.50;89.10;;;;;;4968231;28;20034;-75
2024/02/24 10:07:47;;;;;;;8.50;4.28;;;6.60;88.50;;;;;;4977610;28;20106;-74
2024/02/24 10:10:15;;;;;;;9.05;5.13;;;6.60;88.10;;;;;;4974789;28;20030;-75
2024/02/24 10:13:02;;;;;;;7.93;4.43;;;6.80;88.00;;;;;;4974212;28;20114;-75
2024/02/24 10:15:29;;;;;;;9.32;5.15;;;6.80;87.90;;;;;;4970257;28;20096;-75
2024/02/24 10:17:57;;;;;;;10.00;5.03;;;7.00;87.90;;;;;;4979474;28;20026;-76
2024/02/24 10:20:24;;;;;;;10.45;4.72;;;7.10;87.70;;;;;;4976885;28;20034;-75
2024/02/24 10:22:49;;;;;;;6.78;4.20;;;7.10;86.90;;;;;;4978440;28;20499;-75
2024/02/24 10:25:15;;;;;;;8.30;4.15;;;7.00;86.70;;;;;;4972706;28;20043;-76
2024/02/24 10:27:45;;;;;;;8.48;4.50;;;7.00;86.80;;;;;;4959474;28;20395;-75
2024/02/24 10:30:11;;;;;;;10.77;4.45;;;7.00;87.00;;;;;;4962415;28;20026;-75
2024/02/24 10:32:38;;;;;;;8.77;4.45;;;7.00;87.00;;;;;;4973689;28;20030;-76
2024/02/24 10:35:04;;;;;;;10.32;4.68;;;7.10;87.20;;;;;;4977023;28;20339;-75
2024/02/24 10:37:34;;;;;;;9.00;4.00;;;7.10;86.50;;;;;;4977814;28;20044;-75
2024/02/24 10:40:03;;;;;;;9.35;4.13;;;7.30;86.80;;;;;;4974818;28;20041;-74
2024/02/24 10:42:29;;;;;;;7.57;4.30;;;7.30;86.40;;;;;;4974799;28;20173;-75
2024/02/24 10:44:56;;;;;;;7.43;3.92;;;7.40;86.10;;;;;;4969337;28;20700;-74
2024/02/24 10:47:22;;;;;;;8.00;4.63;;;7.60;86.00;;;;;;4977261;28;20474;-76
2024/02/24 10:49:47;;;;;;;6.78;3.95;;;7.70;85.50;;;;;;4971421;28;20043;-74
2024/02/24 10:52:15;;;;;;;8.00;4.15;;;7.70;84.90;;;;;;4971170;28;21853;-75
2024/02/24 10:54:42;;;;;;;8.07;4.28;;;7.80;84.40;;;;;;4972753;28;20464;-76
2024/02/24 10:57:09;;;;;;;6.20;3.50;;;8.00;84.60;;;;;;4983336;28;20349;-78
2024/02/24 10:59:35;;;;;;;7.82;3.90;;;8.20;84.70;;;;;;4990314;28;20068;-75
2024/02/24 11:02:11;;;;;;;8.60;4.15;;;8.10;83.40;;;;;;4965177;28;20043;-77
2024/02/24 11:04:38;;;;;;;8.20;3.67;;;8.20;84.00;;;;;;4959318;28;20377;-74
2024/02/24 11:07:15;;;;;;;8.30;3.50;;;8.30;83.10;;;;;;4978362;28;20034;-75
2024/02/24 11:09:47;;;;;;;7.25;3.58;;;8.10;83.20;;;;;;4990767;28;20065;-75
2024/02/24 11:12:14;;;;;;;7.05;4.30;;;8.20;83.80;;;;;;4975946;28;20117;-74
2024/02/24 11:14:58;;;;;;;6.10;3.58;;;8.20;83.50;;;;;;4976168;28;20110;-78
2024/02/24 11:17:47;;;;;;;6.72;3.67;;;8.20;83.80;;;;;;4975272;28;20035;-74
2024/02/24 11:20:38;;;;;;;7.78;4.20;;;8.20;83.90;;;;;;4973236;28;20469;-76
2024/02/24 11:23:22;;;;;;;7.30;3.28;;;8.40;83.10;;;;;;4975742;28;20026;-76
2024/02/24 11:25:49;;;;;;;6.57;3.50;;;8.60;82.70;;;;;;4968426;28;20026;-76
2024/02/24 11:28:22;;;;;;;8.00;3.85;;;8.70;82.20;;;;;;4958675;28;20032;-76
2024/02/24 11:30:53;;;;;;;7.97;3.60;;;9.10;81.30;;;;;;4956070;28;20556;-75
2024/02/24 11:33:26;;;;;;;5.45;3.25;;;9.30;80.70;;;;;;4976085;28;20414;-76
2024/02/24 11:35:56;;;;;;;8.10;3.55;;;9.20;80.50;;;;;;4970815;28;20041;-75
2024/02/24 11:38:25;;;;;;;6.20;3.70;;;9.10;80.40;;;;;;4956776;28;20073;-76
2024/02/24 11:40:51;;;;;;;7.32;3.83;;;9.10;80.60;;;;;;4959799;28;20058;-77
2024/02/24 11:43:18;;;;;;;8.25;4.07;;;9.10;80.50;;;;;;4974499;28;20298;-74
2024/02/24 11:45:49;;;;;;;8.18;4.22;;;9.10;80.10;;;;;;4973575;28;20118;-77
2024/02/24 11:48:19;;;;;;;7.15;3.72;;;9.30;80.40;;;;;;4974567;28;20435;-75
2024/02/24 11:50:45;;;;;;;13.80;3.20;;;9.20;80.10;;;;;;4970406;28;20541;-74
2024/02/24 11:53:12;;;;;;;9.70;3.20;;;9.10;79.80;;;;;;4972431;28;20037;-76
2024/02/24 11:55:38;;;;;;;6.82;3.10;;;9.00;79.70;;;;;;4976441;28;20029;-75
2024/02/24 11:58:07;;;;;;;4.00;2.50;;;9.10;80.60;;;;;;4975463;28;20022;-74
2024/02/24 12:00:40;;;;;;;8.18;2.90;;;9.30;80.00;;;;;;4977969;28;20026;-74
2024/02/24 12:03:13;;;;;;;6.03;2.40;;;9.40;79.50;;;;;;4976987;28;20122;-77
2024/02/24 12:05:39;;;;;;;4.93;2.78;;;9.30;79.50;;;;;;4972999;28;20038;-77
2024/02/24 12:08:19;;;;;;;7.05;2.88;;;9.40;79.10;;;;;;4959012;28;20366;-74
2024/02/24 12:10:44;;;;;;;7.03;2.67;;;9.50;79.40;;;;;;4971646;28;20038;-74
2024/02/24 12:13:12;;;;;;;7.22;3.15;;;9.60;79.10;;;;;;4982292;28;20038;-76
2024/02/24 12:15:39;;;;;;;6.80;3.15;;;9.70;79.10;;;;;;4976794;28;20042;-77
2024/02/24 12:18:05;;;;;;;7.32;3.75;;;9.60;78.00;;;;;;4975505;28;20038;-75
2024/02/24 12:20:33;;;;;;;6.97;2.97;;;9.60;78.70;;;;;;4977517;28;20041;-76
2024/02/24 12:23:04;;;;;;;7.97;4.55;;;9.60;78.10;;;;;;4975151;28;20659;-75
2024/02/24 12:25:29;;;;;;;8.98;3.90;;;9.40;77.80;;;;;;4980232;28;20069;-75
2024/02/24 12:27:58;;;;;;;8.45;4.75;;;9.30;78.40;;;;;;4978308;28;20108;-74
2024/02/24 12:30:24;;;;;;;9.07;3.90;;;9.30;78.70;;;;;;4971651;28;20145;-76
2024/02/24 12:32:49;;;;;;;8.88;4.63;;;9.30;78.00;;;;;;4979859;28;20420;-75
2024/02/24 12:35:15;;;;;;;6.10;2.42;;;9.20;78.80;;;;;;4980174;28;20040;-76
2024/02/24 12:37:44;;;;;;;5.10;2.33;;;9.50;78.30;;;;;;4980333;28;20018;-74
2024/02/24 12:40:29;;;;;;;7.78;2.60;;;9.50;78.00;;;;;;4977145;28;20327;-76
2024/02/24 12:42:55;;;;;;;8.57;3.13;;;9.40;78.00;;;;;;4980818;28;20117;-74
2024/02/24 12:45:21;;;;;;;5.93;3.17;;;9.50;78.20;;;;;;4980426;28;20052;-76
2024/02/24 12:47:50;;;;;;;5.03;2.40;;;9.40;77.70;;;;;;4981146;28;20077;-77
2024/02/24 12:50:20;;;;;;;4.82;2.40;;;9.30;78.30;;;;;;4977990;28;20382;-75
2024/02/24 12:52:47;;;;;;;4.80;3.00;;;9.10;78.80;;;;;;4974072;28;20105;-76